Carbonado, Washington
Current Conditions -  °F | °C
As of 6:13 AM on Thursday 30 Oct 2014 (Local Time) from KTCM Reporting Station
Haze Haze  
Wind Chill: 52°   Ceiling: 9000
Heat Index: 52°   Visibility: 5mi
Dew Point: 52°   Wind: 3mph
Humidity: 100%   Direction: 230°SW
Pressure: 29.89"   Gusts: NA
Location:  47.08°N, 122.05°W
Report Text: KTCM 301313Z AUTO 23003KT 5SM BR OVC090 11/11 A2989 RMK AO2
Loading
Personal Weather Stations






























Interactive Weather Map
Tropical Storm Tracking
New forecast layout! Learn more

10-Day Weather Forecast

Advertisements
Track Severe Weather on mobile